sensor_id;sensor_type;location;lat;lon;timestamp;P1;durP1;ratioP1;P2;durP2;ratioP2
17993;SDS011;9122;48.406;9.984;2023-03-16T00:01:56;11.83;;;10.73;;
17993;SDS011;9122;48.406;9.984;2023-03-16T00:04:41;12.63;;;11.37;;
17993;SDS011;9122;48.406;9.984;2023-03-16T00:07:25;9.73;;;8.73;;
17993;SDS011;9122;48.406;9.984;2023-03-16T00:10:11;9.37;;;8.47;;
17993;SDS011;9122;48.406;9.984;2023-03-16T00:12:56;9.50;;;8.50;;
17993;SDS011;9122;48.406;9.984;2023-03-16T00:15:40;10.00;;;9.10;;
17993;SDS011;9122;48.406;9.984;2023-03-16T00:18:33;9.80;;;8.93;;
17993;SDS011;9122;48.406;9.984;2023-03-16T00:21:23;9.77;;;8.80;;
17993;SDS011;9122;48.406;9.984;2023-03-16T00:24:08;9.93;;;9.10;;
17993;SDS011;9122;48.406;9.984;2023-03-16T00:26:52;9.97;;;9.07;;
17993;SDS011;9122;48.406;9.984;2023-03-16T00:29:38;10.50;;;9.50;;
17993;SDS011;9122;48.406;9.984;2023-03-16T00:32:31;9.93;;;9.03;;
17993;SDS011;9122;48.406;9.984;2023-03-16T00:35:17;10.53;;;9.53;;
17993;SDS011;9122;48.406;9.984;2023-03-16T00:38:05;10.33;;;9.30;;
17993;SDS011;9122;48.406;9.984;2023-03-16T00:40:49;10.30;;;9.30;;
17993;SDS011;9122;48.406;9.984;2023-03-16T00:43:35;11.33;;;9.43;;
17993;SDS011;9122;48.406;9.984;2023-03-16T00:46:23;9.70;;;8.80;;
17993;SDS011;9122;48.406;9.984;2023-03-16T00:49:09;10.37;;;9.37;;
17993;SDS011;9122;48.406;9.984;2023-03-16T00:51:54;9.63;;;8.80;;
17993;SDS011;9122;48.406;9.984;2023-03-16T00:54:41;10.70;;;9.67;;
17993;SDS011;9122;48.406;9.984;2023-03-16T00:57:27;9.90;;;9.00;;
17993;SDS011;9122;48.406;9.984;2023-03-16T01:00:12;11.27;;;10.17;;
17993;SDS011;9122;48.406;9.984;2023-03-16T01:03:02;10.33;;;9.43;;
17993;SDS011;9122;48.406;9.984;2023-03-16T01:05:47;11.03;;;9.57;;
17993;SDS011;9122;48.406;9.984;2023-03-16T01:08:31;10.70;;;9.70;;
17993;SDS011;9122;48.406;9.984;2023-03-16T01:11:17;11.00;;;9.53;;
17993;SDS011;9122;48.406;9.984;2023-03-16T01:14:04;10.87;;;9.63;;
17993;SDS011;9122;48.406;9.984;2023-03-16T01:16:48;10.83;;;9.73;;
17993;SDS011;9122;48.406;9.984;2023-03-16T01:19:35;11.33;;;10.23;;
17993;SDS011;9122;48.406;9.984;2023-03-16T01:22:20;10.57;;;9.47;;
17993;SDS011;9122;48.406;9.984;2023-03-16T01:25:04;11.93;;;10.53;;
17993;SDS011;9122;48.406;9.984;2023-03-16T01:27:52;11.47;;;10.27;;
17993;SDS011;9122;48.406;9.984;2023-03-16T01:30:36;11.30;;;9.83;;
17993;SDS011;9122;48.406;9.984;2023-03-16T01:33:21;10.97;;;9.77;;
17993;SDS011;9122;48.406;9.984;2023-03-16T01:36:07;11.17;;;10.17;;
17993;SDS011;9122;48.406;9.984;2023-03-16T01:38:55;13.60;;;11.33;;
17993;SDS011;9122;48.406;9.984;2023-03-16T01:41:42;11.93;;;10.63;;
17993;SDS011;9122;48.406;9.984;2023-03-16T01:44:28;12.50;;;11.27;;
17993;SDS011;9122;48.406;9.984;2023-03-16T01:47:17;13.77;;;12.40;;
17993;SDS011;9122;48.406;9.984;2023-03-16T01:50:02;14.07;;;12.70;;
17993;SDS011;9122;48.406;9.984;2023-03-16T01:52:48;14.03;;;12.63;;
17993;SDS011;9122;48.406;9.984;2023-03-16T01:55:34;12.93;;;11.70;;
17993;SDS011;9122;48.406;9.984;2023-03-16T01:58:18;14.33;;;12.83;;
17993;SDS011;9122;48.406;9.984;2023-03-16T02:01:04;13.70;;;12.30;;
17993;SDS011;9122;48.406;9.984;2023-03-16T02:03:48;13.27;;;11.93;;
17993;SDS011;9122;48.406;9.984;2023-03-16T02:06:37;16.23;;;13.00;;
17993;SDS011;9122;48.406;9.984;2023-03-16T02:09:23;14.27;;;12.90;;
17993;SDS011;9122;48.406;9.984;2023-03-16T02:12:15;13.17;;;11.87;;
17993;SDS011;9122;48.406;9.984;2023-03-16T02:15:01;12.93;;;11.67;;
17993;SDS011;9122;48.406;9.984;2023-03-16T02:17:46;14.60;;;12.73;;
17993;SDS011;9122;48.406;9.984;2023-03-16T02:20:41;14.93;;;13.37;;
17993;SDS011;9122;48.406;9.984;2023-03-16T02:23:45;13.90;;;12.50;;
17993;SDS011;9122;48.406;9.984;2023-03-16T02:32:25;13.70;;;12.17;;
17993;SDS011;9122;48.406;9.984;2023-03-16T02:35:12;13.47;;;12.20;;
17993;SDS011;9122;48.406;9.984;2023-03-16T02:38:02;14.20;;;12.70;;
17993;SDS011;9122;48.406;9.984;2023-03-16T02:40:53;14.40;;;12.87;;
17993;SDS011;9122;48.406;9.984;2023-03-16T02:46:40;17.23;;;13.73;;
17993;SDS011;9122;48.406;9.984;2023-03-16T02:52:19;16.33;;;14.60;;
17993;SDS011;9122;48.406;9.984;2023-03-16T02:55:04;16.40;;;14.40;;
17993;SDS011;9122;48.406;9.984;2023-03-16T02:57:50;18.73;;;15.80;;
17993;SDS011;9122;48.406;9.984;2023-03-16T03:00:35;16.00;;;14.23;;
17993;SDS011;9122;48.406;9.984;2023-03-16T03:03:21;13.33;;;12.03;;
17993;SDS011;9122;48.406;9.984;2023-03-16T03:06:05;14.40;;;12.90;;
17993;SDS011;9122;48.406;9.984;2023-03-16T03:08:50;16.17;;;13.60;;
17993;SDS011;9122;48.406;9.984;2023-03-16T03:11:35;14.83;;;13.17;;
17993;SDS011;9122;48.406;9.984;2023-03-16T03:14:19;13.83;;;12.40;;
17993;SDS011;9122;48.406;9.984;2023-03-16T03:17:07;13.67;;;12.30;;
17993;SDS011;9122;48.406;9.984;2023-03-16T03:19:53;13.50;;;11.40;;
17993;SDS011;9122;48.406;9.984;2023-03-16T03:22:38;13.13;;;11.83;;
17993;SDS011;9122;48.406;9.984;2023-03-16T03:25:23;12.03;;;10.70;;
17993;SDS011;9122;48.406;9.984;2023-03-16T03:28:07;13.47;;;11.87;;
17993;SDS011;9122;48.406;9.984;2023-03-16T03:30:52;14.17;;;11.33;;
17993;SDS011;9122;48.406;9.984;2023-03-16T03:33:37;13.80;;;12.00;;
17993;SDS011;9122;48.406;9.984;2023-03-16T03:36:21;14.43;;;12.43;;
17993;SDS011;9122;48.406;9.984;2023-03-16T03:39:06;14.73;;;12.90;;
17993;SDS011;9122;48.406;9.984;2023-03-16T03:41:50;18.83;;;14.37;;
17993;SDS011;9122;48.406;9.984;2023-03-16T03:44:37;16.57;;;13.97;;
17993;SDS011;9122;48.406;9.984;2023-03-16T03:47:23;16.57;;;13.30;;
17993;SDS011;9122;48.406;9.984;2023-03-16T03:50:08;15.57;;;13.27;;
17993;SDS011;9122;48.406;9.984;2023-03-16T03:52:54;14.07;;;12.57;;
17993;SDS011;9122;48.406;9.984;2023-03-16T03:55:38;15.50;;;12.90;;
17993;SDS011;9122;48.406;9.984;2023-03-16T03:58:23;13.93;;;11.93;;
17993;SDS011;9122;48.406;9.984;2023-03-16T04:01:07;17.43;;;13.60;;
17993;SDS011;9122;48.406;9.984;2023-03-16T04:03:52;21.83;;;16.13;;
17993;SDS011;9122;48.406;9.984;2023-03-16T04:06:36;18.30;;;16.17;;
17993;SDS011;9122;48.406;9.984;2023-03-16T04:09:21;19.73;;;16.53;;
17993;SDS011;9122;48.406;9.984;2023-03-16T04:12:07;17.77;;;15.90;;
17993;SDS011;9122;48.406;9.984;2023-03-16T04:14:52;18.27;;;15.17;;
17993;SDS011;9122;48.406;9.984;2023-03-16T04:17:38;17.20;;;14.37;;
17993;SDS011;9122;48.406;9.984;2023-03-16T04:20:23;21.43;;;16.93;;
17993;SDS011;9122;48.406;9.984;2023-03-16T04:23:07;18.23;;;15.67;;
17993;SDS011;9122;48.406;9.984;2023-03-16T04:25:51;19.40;;;16.57;;
17993;SDS011;9122;48.406;9.984;2023-03-16T04:28:37;17.07;;;15.17;;
17993;SDS011;9122;48.406;9.984;2023-03-16T04:31:22;17.17;;;15.07;;
17993;SDS011;9122;48.406;9.984;2023-03-16T04:34:07;17.40;;;15.53;;
17993;SDS011;9122;48.406;9.984;2023-03-16T04:36:51;18.37;;;15.70;;
17993;SDS011;9122;48.406;9.984;2023-03-16T04:39:36;17.20;;;15.23;;
17993;SDS011;9122;48.406;9.984;2023-03-16T04:42:21;20.07;;;15.13;;
17993;SDS011;9122;48.406;9.984;2023-03-16T04:45:06;16.33;;;13.67;;
17993;SDS011;9122;48.406;9.984;2023-03-16T04:47:51;17.07;;;14.77;;
17993;SDS011;9122;48.406;9.984;2023-03-16T04:50:36;16.40;;;14.03;;
17993;SDS011;9122;48.406;9.984;2023-03-16T04:53:20;18.63;;;15.50;;
17993;SDS011;9122;48.406;9.984;2023-03-16T04:56:05;16.90;;;14.13;;
17993;SDS011;9122;48.406;9.984;2023-03-16T04:58:51;16.70;;;14.33;;
17993;SDS011;9122;48.406;9.984;2023-03-16T05:01:36;16.37;;;14.17;;
17993;SDS011;9122;48.406;9.984;2023-03-16T05:04:21;15.90;;;13.93;;
17993;SDS011;9122;48.406;9.984;2023-03-16T05:07:07;16.73;;;14.50;;
17993;SDS011;9122;48.406;9.984;2023-03-16T05:09:51;15.93;;;14.13;;
17993;SDS011;9122;48.406;9.984;2023-03-16T05:12:36;17.70;;;15.60;;
17993;SDS011;9122;48.406;9.984;2023-03-16T05:15:20;16.63;;;14.37;;
17993;SDS011;9122;48.406;9.984;2023-03-16T05:18:05;17.73;;;14.37;;
17993;SDS011;9122;48.406;9.984;2023-03-16T05:20:50;16.63;;;14.13;;
17993;SDS011;9122;48.406;9.984;2023-03-16T05:23:36;18.17;;;15.00;;
17993;SDS011;9122;48.406;9.984;2023-03-16T05:26:20;17.40;;;15.53;;
17993;SDS011;9122;48.406;9.984;2023-03-16T05:29:04;17.87;;;15.30;;
17993;SDS011;9122;48.406;9.984;2023-03-16T05:31:49;20.43;;;15.00;;
17993;SDS011;9122;48.406;9.984;2023-03-16T05:34:34;19.57;;;15.13;;
17993;SDS011;9122;48.406;9.984;2023-03-16T05:37:19;21.70;;;15.90;;
17993;SDS011;9122;48.406;9.984;2023-03-16T05:40:04;19.87;;;16.23;;
17993;SDS011;9122;48.406;9.984;2023-03-16T05:43:05;17.30;;;15.40;;
17993;SDS011;9122;48.406;9.984;2023-03-16T05:45:49;17.67;;;15.73;;
17993;SDS011;9122;48.406;9.984;2023-03-16T05:48:34;19.37;;;16.00;;
17993;SDS011;9122;48.406;9.984;2023-03-16T05:51:19;18.63;;;14.80;;
17993;SDS011;9122;48.406;9.984;2023-03-16T05:54:03;17.10;;;15.23;;
17993;SDS011;9122;48.406;9.984;2023-03-16T05:56:48;16.83;;;14.70;;
17993;SDS011;9122;48.406;9.984;2023-03-16T05:59:32;18.97;;;15.60;;
17993;SDS011;9122;48.406;9.984;2023-03-16T06:02:16;17.30;;;14.43;;
17993;SDS011;9122;48.406;9.984;2023-03-16T06:05:01;18.53;;;15.20;;
17993;SDS011;9122;48.406;9.984;2023-03-16T06:07:45;16.37;;;14.27;;
17993;SDS011;9122;48.406;9.984;2023-03-16T06:10:30;17.77;;;15.77;;
17993;SDS011;9122;48.406;9.984;2023-03-16T06:13:14;16.83;;;15.03;;
17993;SDS011;9122;48.406;9.984;2023-03-16T06:15:59;15.83;;;13.83;;
17993;SDS011;9122;48.406;9.984;2023-03-16T06:18:44;16.53;;;14.80;;
17993;SDS011;9122;48.406;9.984;2023-03-16T06:21:29;18.63;;;15.57;;
17993;SDS011;9122;48.406;9.984;2023-03-16T06:24:14;17.53;;;15.67;;
17993;SDS011;9122;48.406;9.984;2023-03-16T06:26:58;18.33;;;15.10;;
17993;SDS011;9122;48.406;9.984;2023-03-16T06:29:42;17.20;;;14.43;;
17993;SDS011;9122;48.406;9.984;2023-03-16T06:32:27;16.07;;;13.73;;
17993;SDS011;9122;48.406;9.984;2023-03-16T06:35:11;18.07;;;14.07;;
17993;SDS011;9122;48.406;9.984;2023-03-16T06:37:56;14.87;;;13.17;;
17993;SDS011;9122;48.406;9.984;2023-03-16T06:40:40;15.30;;;13.50;;
17993;SDS011;9122;48.406;9.984;2023-03-16T06:43:24;15.70;;;13.70;;
17993;SDS011;9122;48.406;9.984;2023-03-16T06:46:09;16.90;;;14.57;;
17993;SDS011;9122;48.406;9.984;2023-03-16T06:48:54;15.93;;;14.17;;
17993;SDS011;9122;48.406;9.984;2023-03-16T06:51:38;16.00;;;14.10;;
17993;SDS011;9122;48.406;9.984;2023-03-16T06:54:23;14.70;;;12.97;;
17993;SDS011;9122;48.406;9.984;2023-03-16T06:57:08;14.47;;;13.07;;
17993;SDS011;9122;48.406;9.984;2023-03-16T06:59:52;16.73;;;13.50;;
17993;SDS011;9122;48.406;9.984;2023-03-16T07:02:37;16.33;;;14.13;;
17993;SDS011;9122;48.406;9.984;2023-03-16T07:05:23;18.23;;;14.13;;
17993;SDS011;9122;48.406;9.984;2023-03-16T07:08:08;29.90;;;14.53;;
17993;SDS011;9122;48.406;9.984;2023-03-16T07:10:52;20.67;;;14.53;;
17993;SDS011;9122;48.406;9.984;2023-03-16T07:13:37;16.77;;;14.33;;
17993;SDS011;9122;48.406;9.984;2023-03-16T07:16:22;20.77;;;13.97;;
17993;SDS011;9122;48.406;9.984;2023-03-16T07:19:06;17.03;;;12.97;;
17993;SDS011;9122;48.406;9.984;2023-03-16T07:21:51;13.97;;;12.57;;
17993;SDS011;9122;48.406;9.984;2023-03-16T07:24:35;15.23;;;13.73;;
17993;SDS011;9122;48.406;9.984;2023-03-16T07:27:20;15.50;;;13.00;;
17993;SDS011;9122;48.406;9.984;2023-03-16T07:30:06;12.70;;;11.50;;
17993;SDS011;9122;48.406;9.984;2023-03-16T07:32:51;14.50;;;12.23;;
17993;SDS011;9122;48.406;9.984;2023-03-16T07:35:36;14.47;;;12.93;;
17993;SDS011;9122;48.406;9.984;2023-03-16T07:38:20;15.40;;;12.10;;
17993;SDS011;9122;48.406;9.984;2023-03-16T07:41:05;13.10;;;11.67;;
17993;SDS011;9122;48.406;9.984;2023-03-16T07:43:49;13.63;;;11.87;;
17993;SDS011;9122;48.406;9.984;2023-03-16T07:46:38;12.63;;;11.30;;
17993;SDS011;9122;48.406;9.984;2023-03-16T07:49:22;19.90;;;11.23;;
17993;SDS011;9122;48.406;9.984;2023-03-16T07:52:07;13.50;;;11.13;;
17993;SDS011;9122;48.406;9.984;2023-03-16T07:54:52;11.40;;;10.30;;
17993;SDS011;9122;48.406;9.984;2023-03-16T07:57:37;12.60;;;10.70;;
17993;SDS011;9122;48.406;9.984;2023-03-16T08:00:25;11.00;;;9.90;;
17993;SDS011;9122;48.406;9.984;2023-03-16T08:03:09;11.07;;;10.17;;
17993;SDS011;9122;48.406;9.984;2023-03-16T08:05:54;11.93;;;9.97;;
17993;SDS011;9122;48.406;9.984;2023-03-16T08:08:39;11.27;;;10.07;;
17993;SDS011;9122;48.406;9.984;2023-03-16T08:11:24;10.93;;;9.93;;
17993;SDS011;9122;48.406;9.984;2023-03-16T08:14:08;11.80;;;10.60;;
17993;SDS011;9122;48.406;9.984;2023-03-16T08:16:53;10.70;;;9.70;;
17993;SDS011;9122;48.406;9.984;2023-03-16T08:19:37;11.03;;;9.90;;
17993;SDS011;9122;48.406;9.984;2023-03-16T08:22:22;11.43;;;10.33;;
17993;SDS011;9122;48.406;9.984;2023-03-16T08:25:07;11.70;;;10.63;;
17993;SDS011;9122;48.406;9.984;2023-03-16T08:27:55;11.63;;;10.40;;
17993;SDS011;9122;48.406;9.984;2023-03-16T08:30:45;12.70;;;11.27;;
17993;SDS011;9122;48.406;9.984;2023-03-16T08:33:33;11.30;;;10.00;;
17993;SDS011;9122;48.406;9.984;2023-03-16T08:36:18;12.47;;;11.27;;
17993;SDS011;9122;48.406;9.984;2023-03-16T08:39:03;11.87;;;10.77;;
17993;SDS011;9122;48.406;9.984;2023-03-16T08:41:53;11.90;;;10.70;;
17993;SDS011;9122;48.406;9.984;2023-03-16T08:44:39;12.00;;;10.80;;
17993;SDS011;9122;48.406;9.984;2023-03-16T08:47:24;11.60;;;10.50;;
17993;SDS011;9122;48.406;9.984;2023-03-16T08:50:10;11.43;;;10.33;;
17993;SDS011;9122;48.406;9.984;2023-03-16T08:52:57;11.97;;;10.73;;
17993;SDS011;9122;48.406;9.984;2023-03-16T08:55:42;11.87;;;10.60;;
17993;SDS011;9122;48.406;9.984;2023-03-16T08:58:27;12.40;;;11.20;;
17993;SDS011;9122;48.406;9.984;2023-03-16T09:01:14;12.10;;;10.80;;
17993;SDS011;9122;48.406;9.984;2023-03-16T09:04:01;12.40;;;11.10;;
17993;SDS011;9122;48.406;9.984;2023-03-16T09:06:48;11.80;;;10.70;;
17993;SDS011;9122;48.406;9.984;2023-03-16T09:09:36;12.03;;;10.83;;
17993;SDS011;9122;48.406;9.984;2023-03-16T09:12:20;11.90;;;10.70;;
17993;SDS011;9122;48.406;9.984;2023-03-16T09:15:06;11.83;;;10.63;;
17993;SDS011;9122;48.406;9.984;2023-03-16T09:17:52;13.10;;;11.40;;
17993;SDS011;9122;48.406;9.984;2023-03-16T09:20:37;12.80;;;11.60;;
17993;SDS011;9122;48.406;9.984;2023-03-16T09:23:30;12.23;;;10.93;;
17993;SDS011;9122;48.406;9.984;2023-03-16T09:26:15;13.37;;;12.10;;
17993;SDS011;9122;48.406;9.984;2023-03-16T09:29:00;12.30;;;11.00;;
17993;SDS011;9122;48.406;9.984;2023-03-16T09:31:45;11.63;;;10.47;;
17993;SDS011;9122;48.406;9.984;2023-03-16T09:34:30;13.13;;;11.73;;
17993;SDS011;9122;48.406;9.984;2023-03-16T09:37:15;14.37;;;11.73;;
17993;SDS011;9122;48.406;9.984;2023-03-16T09:40:00;13.27;;;11.97;;
17993;SDS011;9122;48.406;9.984;2023-03-16T09:42:46;12.90;;;11.63;;
17993;SDS011;9122;48.406;9.984;2023-03-16T09:46:02;13.37;;;11.83;;
17993;SDS011;9122;48.406;9.984;2023-03-16T09:49:10;12.13;;;10.83;;
17993;SDS011;9122;48.406;9.984;2023-03-16T09:52:03;12.43;;;11.23;;
17993;SDS011;9122;48.406;9.984;2023-03-16T09:57:55;12.67;;;11.37;;
17993;SDS011;9122;48.406;9.984;2023-03-16T10:01:02;12.57;;;11.27;;
17993;SDS011;9122;48.406;9.984;2023-03-16T10:03:58;13.30;;;11.73;;
17993;SDS011;9122;48.406;9.984;2023-03-16T10:06:54;12.30;;;11.20;;
17993;SDS011;9122;48.406;9.984;2023-03-16T10:12:58;12.47;;;11.27;;
17993;SDS011;9122;48.406;9.984;2023-03-16T10:15:44;12.60;;;11.40;;
17993;SDS011;9122;48.406;9.984;2023-03-16T10:18:41;12.10;;;10.90;;
17993;SDS011;9122;48.406;9.984;2023-03-16T10:21:28;12.60;;;10.87;;
17993;SDS011;9122;48.406;9.984;2023-03-16T10:24:51;12.80;;;10.97;;
17993;SDS011;9122;48.406;9.984;2023-03-16T10:27:31;11.70;;;10.60;;
17993;SDS011;9122;48.406;9.984;2023-03-16T10:36:33;11.33;;;10.33;;
17993;SDS011;9122;48.406;9.984;2023-03-16T10:39:19;11.07;;;9.97;;
17993;SDS011;9122;48.406;9.984;2023-03-16T10:42:03;11.57;;;10.40;;
17993;SDS011;9122;48.406;9.984;2023-03-16T10:45:00;11.97;;;10.77;;
17993;SDS011;9122;48.406;9.984;2023-03-16T10:47:46;11.90;;;10.80;;
17993;SDS011;9122;48.406;9.984;2023-03-16T10:50:30;11.50;;;10.40;;
17993;SDS011;9122;48.406;9.984;2023-03-16T10:53:17;11.10;;;9.90;;
17993;SDS011;9122;48.406;9.984;2023-03-16T10:56:33;11.27;;;10.17;;
17993;SDS011;9122;48.406;9.984;2023-03-16T10:59:31;12.27;;;10.60;;
17993;SDS011;9122;48.406;9.984;2023-03-16T11:02:19;11.23;;;10.03;;
17993;SDS011;9122;48.406;9.984;2023-03-16T11:08:19;12.17;;;10.87;;
17993;SDS011;9122;48.406;9.984;2023-03-16T11:11:09;11.60;;;10.33;;
17993;SDS011;9122;48.406;9.984;2023-03-16T11:13:58;12.10;;;10.87;;
17993;SDS011;9122;48.406;9.984;2023-03-16T11:16:52;12.97;;;11.37;;
17993;SDS011;9122;48.406;9.984;2023-03-16T11:19:55;11.47;;;10.37;;
17993;SDS011;9122;48.406;9.984;2023-03-16T11:22:43;13.53;;;10.87;;
17993;SDS011;9122;48.406;9.984;2023-03-16T11:25:32;12.40;;;11.20;;
17993;SDS011;9122;48.406;9.984;2023-03-16T11:31:44;9.93;;;8.97;;
17993;SDS011;9122;48.406;9.984;2023-03-16T11:34:32;11.57;;;9.70;;
17993;SDS011;9122;48.406;9.984;2023-03-16T11:37:22;12.07;;;10.43;;
17993;SDS011;9122;48.406;9.984;2023-03-16T11:55:43;8.87;;;8.03;;
17993;SDS011;9122;48.406;9.984;2023-03-16T12:05:13;6.30;;;5.80;;
17993;SDS011;9122;48.406;9.984;2023-03-16T12:11:37;5.80;;;5.30;;
17993;SDS011;9122;48.406;9.984;2023-03-16T12:14:33;5.63;;;5.13;;
17993;SDS011;9122;48.406;9.984;2023-03-16T12:17:28;5.60;;;5.10;;
17993;SDS011;9122;48.406;9.984;2023-03-16T12:23:07;4.77;;;4.37;;
17993;SDS011;9122;48.406;9.984;2023-03-16T12:25:57;5.60;;;5.00;;
17993;SDS011;9122;48.406;9.984;2023-03-16T12:28:43;5.07;;;4.30;;
17993;SDS011;9122;48.406;9.984;2023-03-16T12:34:43;5.53;;;4.37;;
17993;SDS011;9122;48.406;9.984;2023-03-16T12:50:33;3.93;;;3.63;;
17993;SDS011;9122;48.406;9.984;2023-03-16T12:53:26;3.87;;;3.40;;
17993;SDS011;9122;48.406;9.984;2023-03-16T12:56:25;3.10;;;2.90;;
17993;SDS011;9122;48.406;9.984;2023-03-16T12:59:19;3.10;;;2.90;;
17993;SDS011;9122;48.406;9.984;2023-03-16T13:02:08;3.63;;;3.43;;
17993;SDS011;9122;48.406;9.984;2023-03-16T13:05:26;3.07;;;2.77;;
17993;SDS011;9122;48.406;9.984;2023-03-16T13:08:15;3.63;;;2.90;;
17993;SDS011;9122;48.406;9.984;2023-03-16T13:11:08;3.20;;;3.00;;
17993;SDS011;9122;48.406;9.984;2023-03-16T13:16:45;3.47;;;3.17;;
17993;SDS011;9122;48.406;9.984;2023-03-16T13:19:30;3.20;;;3.00;;
17993;SDS011;9122;48.406;9.984;2023-03-16T13:22:27;4.13;;;3.23;;
17993;SDS011;9122;48.406;9.984;2023-03-16T13:25:20;3.33;;;3.13;;
17993;SDS011;9122;48.406;9.984;2023-03-16T13:28:12;3.50;;;3.17;;
17993;SDS011;9122;48.406;9.984;2023-03-16T13:30:58;3.27;;;3.07;;
17993;SDS011;9122;48.406;9.984;2023-03-16T13:33:43;2.97;;;2.77;;
17993;SDS011;9122;48.406;9.984;2023-03-16T13:36:31;3.93;;;3.10;;
17993;SDS011;9122;48.406;9.984;2023-03-16T13:39:18;3.17;;;2.97;;
17993;SDS011;9122;48.406;9.984;2023-03-16T13:42:13;4.53;;;2.80;;
17993;SDS011;9122;48.406;9.984;2023-03-16T13:45:10;3.60;;;2.70;;
17993;SDS011;9122;48.406;9.984;2023-03-16T13:47:58;3.10;;;2.83;;
17993;SDS011;9122;48.406;9.984;2023-03-16T13:50:46;3.07;;;2.87;;
17993;SDS011;9122;48.406;9.984;2023-03-16T13:53:40;3.07;;;2.77;;
17993;SDS011;9122;48.406;9.984;2023-03-16T13:56:26;3.57;;;2.90;;
17993;SDS011;9122;48.406;9.984;2023-03-16T13:59:11;3.20;;;3.00;;
17993;SDS011;9122;48.406;9.984;2023-03-16T14:02:00;4.47;;;2.80;;
17993;SDS011;9122;48.406;9.984;2023-03-16T14:04:45;2.83;;;2.63;;
17993;SDS011;9122;48.406;9.984;2023-03-16T14:07:35;2.50;;;2.30;;
17993;SDS011;9122;48.406;9.984;2023-03-16T14:10:21;2.60;;;2.40;;
17993;SDS011;9122;48.406;9.984;2023-03-16T14:13:09;3.30;;;2.77;;
17993;SDS011;9122;48.406;9.984;2023-03-16T14:16:09;2.93;;;2.73;;
17993;SDS011;9122;48.406;9.984;2023-03-16T14:19:01;3.80;;;2.60;;
17993;SDS011;9122;48.406;9.984;2023-03-16T14:21:48;4.80;;;3.50;;
17993;SDS011;9122;48.406;9.984;2023-03-16T14:24:36;4.57;;;2.50;;
17993;SDS011;9122;48.406;9.984;2023-03-16T14:33:19;2.60;;;2.40;;
17993;SDS011;9122;48.406;9.984;2023-03-16T14:36:11;3.40;;;3.00;;
17993;SDS011;9122;48.406;9.984;2023-03-16T14:38:57;3.60;;;3.30;;
17993;SDS011;9122;48.406;9.984;2023-03-16T14:41:57;2.83;;;2.63;;
17993;SDS011;9122;48.406;9.984;2023-03-16T14:44:44;3.50;;;3.00;;
17993;SDS011;9122;48.406;9.984;2023-03-16T14:47:30;3.83;;;2.80;;
17993;SDS011;9122;48.406;9.984;2023-03-16T14:50:24;3.93;;;2.97;;
17993;SDS011;9122;48.406;9.984;2023-03-16T14:53:08;3.50;;;3.20;;
17993;SDS011;9122;48.406;9.984;2023-03-16T14:55:53;3.60;;;2.83;;
17993;SDS011;9122;48.406;9.984;2023-03-16T14:58:39;2.90;;;2.57;;
17993;SDS011;9122;48.406;9.984;2023-03-16T15:01:23;2.80;;;2.60;;
17993;SDS011;9122;48.406;9.984;2023-03-16T15:04:09;2.93;;;2.73;;
17993;SDS011;9122;48.406;9.984;2023-03-16T15:06:57;2.83;;;2.63;;
17993;SDS011;9122;48.406;9.984;2023-03-16T15:09:41;3.23;;;3.03;;
17993;SDS011;9122;48.406;9.984;2023-03-16T15:12:27;2.70;;;2.50;;
17993;SDS011;9122;48.406;9.984;2023-03-16T15:15:15;3.03;;;2.83;;
17993;SDS011;9122;48.406;9.984;2023-03-16T15:18:02;3.00;;;2.80;;
17993;SDS011;9122;48.406;9.984;2023-03-16T15:20:46;4.00;;;3.70;;
17993;SDS011;9122;48.406;9.984;2023-03-16T15:23:35;6.63;;;4.20;;
17993;SDS011;9122;48.406;9.984;2023-03-16T15:26:20;4.23;;;3.40;;
17993;SDS011;9122;48.406;9.984;2023-03-16T15:29:08;2.90;;;2.70;;
17993;SDS011;9122;48.406;9.984;2023-03-16T15:31:55;3.10;;;2.90;;
17993;SDS011;9122;48.406;9.984;2023-03-16T15:34:39;2.90;;;2.70;;
17993;SDS011;9122;48.406;9.984;2023-03-16T15:37:24;3.13;;;2.93;;
17993;SDS011;9122;48.406;9.984;2023-03-16T15:40:17;3.37;;;3.07;;
17993;SDS011;9122;48.406;9.984;2023-03-16T15:43:10;3.40;;;3.20;;
17993;SDS011;9122;48.406;9.984;2023-03-16T15:45:56;3.20;;;2.90;;
17993;SDS011;9122;48.406;9.984;2023-03-16T15:48:42;3.93;;;2.90;;
17993;SDS011;9122;48.406;9.984;2023-03-16T15:51:27;3.20;;;3.00;;
17993;SDS011;9122;48.406;9.984;2023-03-16T15:54:13;3.13;;;2.93;;
17993;SDS011;9122;48.406;9.984;2023-03-16T15:56:58;3.23;;;2.93;;
17993;SDS011;9122;48.406;9.984;2023-03-16T15:59:42;3.90;;;3.50;;
17993;SDS011;9122;48.406;9.984;2023-03-16T16:02:29;3.37;;;3.10;;
17993;SDS011;9122;48.406;9.984;2023-03-16T16:05:15;3.37;;;3.07;;
17993;SDS011;9122;48.406;9.984;2023-03-16T16:07:59;3.10;;;2.90;;
17993;SDS011;9122;48.406;9.984;2023-03-16T16:10:44;3.63;;;3.37;;
17993;SDS011;9122;48.406;9.984;2023-03-16T16:13:30;3.90;;;3.60;;
17993;SDS011;9122;48.406;9.984;2023-03-16T16:16:15;4.90;;;3.87;;
17993;SDS011;9122;48.406;9.984;2023-03-16T16:19:01;3.90;;;3.50;;
17993;SDS011;9122;48.406;9.984;2023-03-16T16:21:46;3.57;;;3.37;;
17993;SDS011;9122;48.406;9.984;2023-03-16T16:24:30;3.63;;;3.33;;
17993;SDS011;9122;48.406;9.984;2023-03-16T16:27:15;3.90;;;3.60;;
17993;SDS011;9122;48.406;9.984;2023-03-16T16:30:00;5.20;;;4.20;;
17993;SDS011;9122;48.406;9.984;2023-03-16T16:32:44;4.13;;;3.83;;
17993;SDS011;9122;48.406;9.984;2023-03-16T16:35:29;4.80;;;4.40;;
17993;SDS011;9122;48.406;9.984;2023-03-16T16:38:13;4.83;;;4.43;;
17993;SDS011;9122;48.406;9.984;2023-03-16T16:40:59;4.37;;;3.90;;
17993;SDS011;9122;48.406;9.984;2023-03-16T16:43:49;4.83;;;4.43;;
17993;SDS011;9122;48.406;9.984;2023-03-16T16:46:39;4.70;;;4.30;;
17993;SDS011;9122;48.406;9.984;2023-03-16T16:49:28;5.47;;;4.93;;
17993;SDS011;9122;48.406;9.984;2023-03-16T16:52:17;5.00;;;4.60;;
17993;SDS011;9122;48.406;9.984;2023-03-16T16:55:02;4.40;;;4.00;;
17993;SDS011;9122;48.406;9.984;2023-03-16T16:57:47;4.67;;;4.27;;
17993;SDS011;9122;48.406;9.984;2023-03-16T17:00:33;5.70;;;5.20;;
17993;SDS011;9122;48.406;9.984;2023-03-16T17:03:22;7.00;;;4.70;;
17993;SDS011;9122;48.406;9.984;2023-03-16T17:06:15;4.53;;;4.23;;
17993;SDS011;9122;48.406;9.984;2023-03-16T17:09:01;4.87;;;4.50;;
17993;SDS011;9122;48.406;9.984;2023-03-16T17:11:45;4.43;;;4.03;;
17993;SDS011;9122;48.406;9.984;2023-03-16T17:14:31;4.67;;;4.37;;
17993;SDS011;9122;48.406;9.984;2023-03-16T17:17:16;5.43;;;4.97;;
17993;SDS011;9122;48.406;9.984;2023-03-16T17:20:01;4.73;;;4.33;;
17993;SDS011;9122;48.406;9.984;2023-03-16T17:22:48;4.97;;;4.57;;
17993;SDS011;9122;48.406;9.984;2023-03-16T17:25:34;5.33;;;4.77;;
17993;SDS011;9122;48.406;9.984;2023-03-16T17:28:18;5.17;;;4.70;;
17993;SDS011;9122;48.406;9.984;2023-03-16T17:31:03;5.27;;;4.77;;
17993;SDS011;9122;48.406;9.984;2023-03-16T17:33:48;5.37;;;4.87;;
17993;SDS011;9122;48.406;9.984;2023-03-16T17:36:34;4.90;;;4.50;;
17993;SDS011;9122;48.406;9.984;2023-03-16T17:39:27;4.77;;;4.37;;
17993;SDS011;9122;48.406;9.984;2023-03-16T17:42:15;5.57;;;4.80;;
17993;SDS011;9122;48.406;9.984;2023-03-16T17:45:01;5.10;;;4.80;;
17993;SDS011;9122;48.406;9.984;2023-03-16T17:47:48;4.73;;;4.33;;
17993;SDS011;9122;48.406;9.984;2023-03-16T17:50:33;5.67;;;5.27;;
17993;SDS011;9122;48.406;9.984;2023-03-16T17:53:18;5.50;;;5.00;;
17993;SDS011;9122;48.406;9.984;2023-03-16T17:56:10;5.33;;;4.93;;
17993;SDS011;9122;48.406;9.984;2023-03-16T17:59:04;5.93;;;5.13;;
17993;SDS011;9122;48.406;9.984;2023-03-16T18:05:32;5.63;;;5.13;;
17993;SDS011;9122;48.406;9.984;2023-03-16T18:08:18;5.10;;;4.70;;
17993;SDS011;9122;48.406;9.984;2023-03-16T18:11:11;5.40;;;4.50;;
17993;SDS011;9122;48.406;9.984;2023-03-16T18:14:05;5.20;;;4.70;;